createdAt,value
2022-10-24T00:03:42.206Z,4.30
2022-10-24T00:06:10.542Z,5.18
2022-10-24T00:08:38.541Z,4.03
2022-10-24T00:11:32.023Z,4.75
2022-10-24T00:13:59.654Z,4.53
2022-10-24T00:16:28.253Z,3.85
2022-10-24T00:18:55.064Z,4.53
2022-10-24T00:21:22.686Z,4.97
2022-10-24T00:23:49.421Z,4.28
2022-10-24T00:26:17.073Z,4.85
2022-10-24T00:28:44.291Z,3.65
2022-10-24T00:31:17.821Z,4.50
2022-10-24T00:33:45.496Z,3.03
2022-10-24T00:36:14.463Z,5.07
2022-10-24T00:38:41.489Z,4.25
2022-10-24T00:41:14.366Z,3.88
2022-10-24T00:43:41.217Z,4.30
2022-10-24T00:48:43.671Z,4.28
2022-10-24T00:51:30.595Z,3.78
2022-10-24T00:54:01.634Z,3.75
2022-10-24T00:56:31.985Z,3.25
2022-10-24T00:59:00.970Z,3.80
2022-10-24T01:01:28.654Z,4.28
2022-10-24T01:03:55.489Z,3.70
2022-10-24T01:06:31.464Z,3.53
2022-10-24T01:09:31.750Z,3.95
2022-10-24T01:12:29.563Z,3.70
2022-10-24T01:15:10.340Z,4.22
2022-10-24T01:17:55.224Z,4.13
2022-10-24T01:20:40.741Z,4.10
2022-10-24T01:23:14.896Z,4.15
2022-10-24T01:26:04.824Z,3.30
2022-10-24T01:28:44.244Z,4.10
2022-10-24T01:31:26.990Z,4.25
2022-10-24T01:34:04.288Z,3.85
2022-10-24T01:36:42.743Z,4.00
2022-10-24T01:39:15.175Z,4.15
2022-10-24T01:41:43.611Z,3.80
2022-10-24T01:44:17.526Z,3.40
2022-10-24T01:46:56.084Z,3.33
2022-10-24T01:49:27.935Z,3.63
2022-10-24T01:51:59.245Z,3.38
2022-10-24T01:54:26.484Z,4.10
2022-10-24T01:56:53.204Z,3.58
2022-10-24T01:59:26.031Z,4.10
2022-10-24T02:02:13.107Z,4.43
2022-10-24T02:04:46.904Z,2.83
2022-10-24T02:07:16.274Z,3.70
2022-10-24T02:09:44.753Z,4.40
2022-10-24T02:12:14.794Z,4.38
2022-10-24T02:14:53.261Z,3.60
2022-10-24T02:17:20.190Z,3.40
2022-10-24T02:22:27.939Z,3.80
2022-10-24T02:25:01.563Z,4.38
2022-10-24T02:27:54.158Z,3.60
2022-10-24T02:30:23.844Z,4.80
2022-10-24T02:32:54.994Z,4.22
2022-10-24T02:35:27.051Z,3.80
2022-10-24T02:37:59.883Z,3.60
2022-10-24T02:40:26.767Z,4.32
2022-10-24T02:45:23.271Z,4.63
2022-10-24T02:47:52.615Z,5.93
2022-10-24T02:50:20.280Z,4.15
2022-10-24T02:52:47.452Z,5.43
2022-10-24T02:55:14.420Z,4.45
2022-10-24T02:57:41.196Z,5.25
2022-10-24T03:00:08.942Z,4.30
2022-10-24T03:02:35.813Z,4.38
2022-10-24T03:05:02.680Z,3.55
2022-10-24T03:09:57.237Z,4.50
2022-10-24T03:12:25.052Z,3.90
2022-10-24T03:14:51.907Z,4.15
2022-10-24T03:17:18.666Z,4.63
2022-10-24T03:19:45.814Z,2.85
2022-10-24T03:22:12.585Z,3.83
2022-10-24T03:24:44.299Z,3.42
2022-10-24T03:27:21.907Z,3.20
2022-10-24T03:29:48.670Z,2.50
2022-10-24T03:32:15.499Z,3.00
2022-10-24T03:34:42.397Z,3.25
2022-10-24T03:37:09.131Z,2.65
2022-10-24T03:39:35.989Z,3.08
2022-10-24T03:42:03.040Z,2.80
2022-10-24T03:44:29.911Z,3.58
2022-10-24T03:49:23.310Z,3.25
2022-10-24T03:51:50.069Z,2.85
2022-10-24T03:54:16.842Z,3.28
2022-10-24T03:56:44.344Z,3.67
2022-10-24T03:59:11.402Z,4.18
2022-10-24T04:01:38.192Z,4.07
2022-10-24T04:06:35.500Z,3.63
2022-10-24T04:09:04.190Z,4.57
2022-10-24T04:11:31.072Z,18.42
2022-10-24T04:13:58.317Z,10.68
2022-10-24T04:16:25.143Z,14.55
2022-10-24T04:18:51.931Z,13.20
2022-10-24T04:21:21.544Z,6.30
2022-10-24T04:23:48.735Z,3.88
2022-10-24T04:26:18.619Z,3.15
2022-10-24T04:28:46.974Z,3.70
2022-10-24T04:31:16.904Z,3.28
2022-10-24T04:33:46.561Z,3.35
2022-10-24T04:36:13.326Z,3.38
2022-10-24T04:38:40.205Z,2.97
2022-10-24T04:41:09.895Z,3.35
2022-10-24T04:43:39.036Z,3.75
2022-10-24T04:48:35.238Z,3.92
2022-10-24T04:51:02.325Z,3.55
2022-10-24T04:55:55.658Z,3.67
2022-10-24T04:58:22.447Z,3.90
2022-10-24T05:00:50.317Z,4.72
2022-10-24T05:03:18.967Z,4.38
2022-10-24T05:05:46.740Z,3.42
2022-10-24T05:08:13.640Z,3.75
2022-10-24T05:13:07.192Z,4.22
2022-10-24T05:15:33.915Z,4.90
2022-10-24T05:18:00.980Z,5.03
2022-10-24T05:20:28.621Z,4.90
2022-10-24T05:22:56.014Z,4.57
2022-10-24T05:25:23.058Z,4.32
2022-10-24T05:27:49.751Z,4.13
2022-10-24T05:30:16.443Z,5.22
2022-10-24T05:32:43.601Z,4.50
2022-10-24T05:35:10.532Z,4.65
2022-10-24T05:37:38.828Z,7.32
2022-10-24T05:40:07.888Z,5.18
2022-10-24T05:42:34.673Z,3.67
2022-10-24T05:45:01.307Z,3.60
2022-10-24T05:47:29.250Z,4.13
2022-10-24T05:49:56.154Z,3.35
2022-10-24T05:52:22.952Z,4.72
2022-10-24T05:55:02.784Z,6.22
2022-10-24T05:57:33.713Z,5.80
2022-10-24T06:00:00.926Z,4.85
2022-10-24T06:02:28.235Z,4.45
2022-10-24T06:04:56.972Z,5.40
2022-10-24T06:07:23.724Z,5.15
2022-10-24T06:09:50.707Z,6.07
2022-10-24T06:14:44.758Z,20.65
2022-10-24T06:17:14.608Z,17.35
2022-10-24T06:19:41.384Z,17.13
2022-10-24T06:22:08.721Z,15.38
2022-10-24T06:24:37.518Z,10.57
2022-10-24T06:27:05.716Z,7.22
2022-10-24T06:29:32.923Z,6.35
2022-10-24T06:32:00.111Z,6.32
2022-10-24T06:34:27.172Z,5.93
2022-10-24T06:36:54.192Z,4.57
2022-10-24T06:39:21.391Z,4.72
2022-10-24T06:41:48.174Z,4.70
2022-10-24T06:44:15.240Z,4.68
2022-10-24T06:46:42.133Z,4.97
2022-10-24T06:51:36.615Z,4.57
2022-10-24T06:54:04.401Z,4.85
2022-10-24T06:56:31.699Z,4.75
2022-10-24T06:58:58.600Z,4.75
2022-10-24T07:01:27.119Z,4.97
2022-10-24T07:03:55.405Z,4.50
2022-10-24T07:06:25.927Z,4.95
2022-10-24T07:08:55.751Z,3.13
2022-10-24T07:11:23.201Z,3.10
2022-10-24T07:13:50.267Z,3.72
2022-10-24T07:16:17.342Z,4.35
2022-10-24T07:18:44.749Z,3.50
2022-10-24T07:21:15.379Z,3.60
2022-10-24T07:23:42.506Z,3.78
2022-10-24T07:26:11.955Z,3.47
2022-10-24T07:28:39.743Z,4.05
2022-10-24T07:31:07.784Z,3.25
2022-10-24T07:33:36.508Z,3.38
2022-10-24T07:36:03.579Z,4.25
2022-10-24T07:38:30.368Z,3.05
2022-10-24T07:40:57.289Z,3.78
2022-10-24T07:45:52.070Z,4.28
2022-10-24T07:48:19.500Z,5.03
2022-10-24T07:50:47.657Z,3.83
2022-10-24T07:53:14.769Z,5.38
2022-10-24T07:55:43.299Z,5.03
2022-10-24T07:58:11.377Z,4.78
2022-10-24T08:00:44.081Z,5.25
2022-10-24T08:03:11.682Z,4.93
2022-10-24T08:05:39.855Z,4.13
2022-10-24T08:10:53.532Z,4.70
2022-10-24T08:15:47.196Z,4.50
2022-10-24T08:18:13.947Z,4.50
2022-10-24T08:20:40.877Z,4.63
2022-10-24T08:23:07.892Z,4.90
2022-10-24T08:25:34.701Z,4.00
2022-10-24T08:30:33.533Z,3.97
2022-10-24T08:35:26.903Z,4.78
2022-10-24T08:37:53.615Z,4.18
2022-10-24T08:42:48.672Z,4.20
2022-10-24T08:45:42.754Z,3.78
2022-10-24T08:48:14.544Z,3.90
2022-10-24T08:50:48.034Z,3.88
2022-10-24T08:53:37.844Z,3.75
2022-10-24T08:56:06.416Z,4.20
2022-10-24T08:58:41.148Z,3.47
2022-10-24T09:01:16.316Z,4.38
2022-10-24T09:04:02.320Z,4.68
2022-10-24T09:06:31.559Z,3.60
2022-10-24T09:09:24.025Z,4.20
2022-10-24T09:12:15.907Z,3.72
2022-10-24T09:14:45.101Z,3.40
2022-10-24T09:20:11.793Z,3.97
2022-10-24T09:22:42.039Z,3.65
2022-10-24T09:25:21.399Z,3.25
2022-10-24T09:27:48.696Z,3.13
2022-10-24T09:30:21.835Z,3.40
2022-10-24T09:32:48.861Z,3.05
2022-10-24T09:35:25.788Z,4.18
2022-10-24T09:37:58.638Z,3.30
2022-10-24T09:40:33.618Z,3.15
2022-10-24T09:43:20.580Z,3.60
2022-10-24T09:45:51.144Z,3.42
2022-10-24T09:48:32.572Z,3.03
2022-10-24T09:51:00.232Z,3.53
2022-10-24T09:53:36.611Z,3.38
2022-10-24T09:56:14.670Z,2.55
2022-10-24T09:58:42.530Z,3.72
2022-10-24T10:01:15.343Z,3.25
2022-10-24T10:03:42.909Z,3.55
2022-10-24T10:06:19.236Z,3.08
2022-10-24T10:08:55.332Z,3.88
2022-10-24T10:11:35.057Z,3.17
2022-10-24T10:14:24.185Z,2.92
2022-10-24T10:17:05.086Z,5.47
2022-10-24T10:19:38.586Z,3.90
2022-10-24T10:22:20.984Z,2.90
2022-10-24T10:24:48.107Z,2.90
2022-10-24T10:27:34.756Z,3.08
2022-10-24T10:30:11.762Z,3.25
2022-10-24T10:32:52.758Z,3.92
2022-10-24T10:35:28.097Z,2.80
2022-10-24T10:38:15.994Z,3.50
2022-10-24T10:40:49.792Z,3.50
2022-10-24T10:43:35.724Z,3.15
2022-10-24T10:46:25.240Z,2.35
2022-10-24T10:49:16.706Z,2.88
2022-10-24T10:52:09.367Z,2.70
2022-10-24T10:55:14.007Z,2.97
2022-10-24T10:58:02.420Z,2.67
2022-10-24T11:00:55.857Z,2.83
2022-10-24T11:03:37.687Z,3.00
2022-10-24T11:06:30.876Z,2.63
2022-10-24T11:09:25.643Z,3.03
2022-10-24T11:12:00.749Z,2.92
2022-10-24T11:14:36.326Z,2.70
2022-10-24T11:17:37.743Z,2.70
2022-10-24T11:20:16.174Z,2.65
2022-10-24T11:22:50.643Z,2.72
2022-10-24T11:25:27.694Z,4.18
2022-10-24T11:30:44.460Z,2.55
2022-10-24T11:33:21.231Z,3.28
2022-10-24T11:36:01.907Z,2.90
2022-10-24T11:38:30.359Z,5.05
2022-10-24T11:41:15.378Z,2.67
2022-10-24T11:43:46.718Z,3.03
2022-10-24T11:46:22.000Z,3.13
2022-10-24T11:49:09.793Z,3.13
2022-10-24T11:51:43.688Z,3.00
2022-10-24T11:54:23.210Z,3.00
2022-10-24T11:56:54.917Z,4.07
2022-10-24T11:59:25.670Z,2.05
2022-10-24T12:02:21.226Z,2.55
2022-10-24T12:05:06.917Z,3.08
2022-10-24T12:08:00.902Z,1.98
2022-10-24T12:11:05.990Z,2.53
2022-10-24T12:13:49.864Z,2.08
2022-10-24T12:16:24.964Z,2.28
2022-10-24T12:18:59.333Z,3.13
2022-10-24T12:21:34.889Z,2.10
2022-10-24T12:24:02.348Z,2.50
2022-10-24T12:26:31.945Z,2.03
2022-10-24T12:29:01.817Z,2.13
2022-10-24T12:31:31.415Z,2.28
2022-10-24T12:34:16.710Z,1.98
2022-10-24T12:37:04.703Z,4.18
2022-10-24T12:39:37.884Z,2.35
2022-10-24T12:42:05.551Z,2.10
2022-10-24T12:44:32.241Z,1.50
2022-10-24T12:46:59.802Z,1.10
2022-10-24T12:49:27.607Z,2.20
2022-10-24T12:51:55.307Z,25.13
2022-10-24T12:54:43.173Z,1.67
2022-10-24T12:57:13.015Z,1.13
2022-10-24T12:59:50.438Z,4.20
2022-10-24T13:02:26.207Z,1.52
2022-10-24T13:05:11.521Z,1.77
2022-10-24T13:07:48.338Z,1.60
2022-10-24T13:10:32.550Z,1.33
2022-10-24T13:13:16.798Z,9.40
2022-10-24T13:16:14.073Z,14.88
2022-10-24T13:18:49.916Z,1.63
2022-10-24T13:21:32.018Z,2.35
2022-10-24T13:24:15.915Z,1.50
2022-10-24T13:26:53.744Z,1.63
2022-10-24T13:29:23.352Z,1.67
2022-10-24T13:31:52.740Z,1.08
2022-10-24T13:34:23.171Z,1.75
2022-10-24T13:36:53.575Z,1.58
2022-10-24T13:39:24.960Z,1.80
2022-10-24T13:42:02.998Z,1.45
2022-10-24T13:44:36.477Z,1.23
2022-10-24T13:47:16.382Z,1.30
2022-10-24T13:49:58.258Z,1.50
2022-10-24T13:52:49.097Z,1.00
2022-10-24T13:55:20.138Z,1.35
2022-10-24T13:57:54.468Z,1.15
2022-10-24T14:00:35.930Z,1.25
2022-10-24T14:03:15.804Z,1.00
2022-10-24T14:05:52.136Z,2.03
2022-10-24T14:08:36.384Z,1.70
2022-10-24T14:11:06.394Z,1.60
2022-10-24T14:13:38.305Z,1.13
2022-10-24T14:16:07.286Z,2.63
2022-10-24T14:18:36.931Z,2.00
2022-10-24T14:21:05.338Z,1.27
2022-10-24T14:23:37.947Z,1.65
2022-10-24T14:26:20.384Z,1.23
2022-10-24T14:28:59.938Z,1.13
2022-10-24T14:31:34.691Z,1.70
2022-10-24T14:34:05.822Z,1.35
2022-10-24T14:36:38.204Z,1.05
2022-10-24T14:39:05.522Z,1.00
2022-10-24T14:41:39.492Z,1.10
2022-10-24T14:44:07.547Z,0.98
2022-10-24T14:46:42.992Z,1.10
2022-10-24T14:49:28.047Z,1.08
2022-10-24T14:52:11.860Z,1.10
2022-10-24T14:54:40.591Z,1.10
2022-10-24T14:57:17.508Z,0.90
2022-10-24T14:59:46.332Z,1.13
2022-10-24T15:02:29.861Z,1.00
2022-10-24T15:05:22.316Z,2.28
2022-10-24T15:08:28.135Z,1.40
2022-10-24T15:11:22.137Z,10.88
2022-10-24T15:14:05.653Z,1.42
2022-10-24T15:16:39.694Z,1.00
2022-10-24T15:19:13.770Z,3.78
2022-10-24T15:21:44.472Z,1.30
2022-10-24T15:24:21.945Z,5.20
2022-10-24T15:26:49.185Z,1.95
2022-10-24T15:29:21.242Z,1.45
2022-10-24T15:31:50.127Z,0.90
2022-10-24T15:34:20.372Z,1.13
2022-10-24T15:36:49.049Z,1.20
2022-10-24T15:39:20.063Z,0.73
2022-10-24T15:41:46.940Z,0.85
2022-10-24T15:44:21.079Z,1.08
2022-10-24T15:46:48.548Z,1.00
2022-10-24T15:49:17.379Z,1.13
2022-10-24T15:51:49.884Z,1.02
2022-10-24T15:54:19.799Z,0.77
2022-10-24T15:56:47.184Z,1.60
2022-10-24T15:59:14.206Z,1.10
2022-10-24T16:01:50.864Z,1.48
2022-10-24T16:04:18.501Z,1.33
2022-10-24T16:06:46.255Z,1.10
2022-10-24T16:09:18.989Z,1.90
2022-10-24T16:11:46.421Z,0.90
2022-10-24T16:14:15.149Z,1.17
2022-10-24T16:16:42.161Z,1.48
2022-10-24T16:19:11.740Z,1.13
2022-10-24T16:21:39.986Z,1.48
2022-10-24T16:24:07.606Z,1.30
2022-10-24T16:26:35.124Z,1.33
2022-10-24T16:29:01.925Z,1.35
2022-10-24T16:31:28.714Z,1.80
2022-10-24T16:33:55.506Z,1.00
2022-10-24T16:38:51.847Z,1.38
2022-10-24T16:41:21.344Z,1.60
2022-10-24T16:43:49.850Z,1.35
2022-10-24T16:46:20.152Z,1.30
2022-10-24T16:48:47.491Z,1.33
2022-10-24T16:51:17.368Z,1.10
2022-10-24T16:53:44.352Z,1.55
2022-10-24T16:56:18.050Z,1.40
2022-10-24T16:58:53.655Z,1.40
2022-10-24T17:01:23.046Z,1.77
2022-10-24T17:03:50.025Z,1.58
2022-10-24T17:06:16.785Z,1.02
2022-10-24T17:11:26.089Z,1.42
2022-10-24T17:16:25.073Z,1.15
2022-10-24T17:21:39.528Z,1.30
2022-10-24T17:24:10.528Z,2.03
2022-10-24T17:26:37.428Z,1.95
2022-10-24T17:29:04.707Z,2.28
2022-10-24T17:31:31.649Z,1.83
2022-10-24T17:34:03.166Z,1.15
2022-10-24T17:36:47.221Z,1.33
2022-10-24T17:39:32.790Z,0.95
2022-10-24T17:42:05.658Z,1.77
2022-10-24T17:44:33.081Z,1.30
2022-10-24T17:47:00.499Z,1.10
2022-10-24T17:49:27.417Z,1.35
2022-10-24T17:51:54.223Z,1.35
2022-10-24T17:56:52.432Z,1.10
2022-10-24T17:59:22.122Z,1.20
2022-10-24T18:01:50.794Z,1.00
2022-10-24T18:04:19.674Z,1.35
2022-10-24T18:06:48.237Z,1.75
2022-10-24T18:09:19.410Z,1.10
2022-10-24T18:11:47.208Z,1.90
2022-10-24T18:14:14.678Z,1.30
2022-10-24T18:16:42.397Z,1.30
2022-10-24T18:19:09.551Z,1.92
2022-10-24T18:21:36.592Z,1.80
2022-10-24T18:24:07.550Z,1.10
2022-10-24T18:26:34.453Z,1.42
2022-10-24T18:29:01.305Z,1.20
2022-10-24T18:33:58.379Z,1.67
2022-10-24T18:36:27.220Z,1.08
2022-10-24T18:38:55.864Z,1.92
2022-10-24T18:41:31.636Z,2.13
2022-10-24T18:44:00.731Z,1.30
2022-10-24T18:46:28.078Z,2.28
2022-10-24T18:48:55.101Z,1.95
2022-10-24T18:51:55.837Z,3.65
2022-10-24T18:54:22.773Z,3.05
2022-10-24T18:56:51.060Z,2.10
2022-10-24T18:59:20.672Z,3.08
2022-10-24T19:01:54.047Z,3.00
2022-10-24T19:04:24.080Z,3.40
2022-10-24T19:06:55.283Z,3.67
2022-10-24T19:09:24.604Z,1.83
2022-10-24T19:11:52.562Z,1.67
2022-10-24T19:14:20.909Z,1.60
2022-10-24T19:16:50.463Z,1.73
2022-10-24T19:22:00.148Z,3.90
2022-10-24T19:24:26.975Z,3.40
2022-10-24T19:29:20.564Z,2.70
2022-10-24T19:31:47.336Z,2.70
2022-10-24T19:36:40.950Z,2.33
2022-10-24T19:39:07.848Z,2.53
2022-10-24T19:44:04.497Z,2.53
2022-10-24T19:46:31.238Z,2.60
2022-10-24T19:51:25.211Z,3.38
2022-10-24T19:53:52.414Z,4.50
2022-10-24T19:56:24.079Z,7.55
2022-10-24T19:58:53.390Z,4.80
2022-10-24T20:01:23.070Z,3.22
2022-10-24T20:03:50.777Z,2.45
2022-10-24T20:06:18.457Z,2.08
2022-10-24T20:08:46.655Z,2.75
2022-10-24T20:11:15.426Z,2.70
2022-10-24T20:13:42.948Z,2.50
2022-10-24T20:16:10.576Z,2.58
2022-10-24T20:18:38.517Z,3.15
2022-10-24T20:21:07.660Z,2.67
2022-10-24T20:23:35.560Z,2.65
2022-10-24T20:26:14.804Z,2.60
2022-10-24T20:28:44.848Z,2.92
2022-10-24T20:31:33.875Z,3.38
2022-10-24T20:34:08.224Z,3.70
2022-10-24T20:36:38.061Z,3.63
2022-10-24T20:39:07.713Z,4.63
2022-10-24T20:41:35.383Z,3.92
2022-10-24T20:44:02.599Z,4.47
2022-10-24T20:46:29.596Z,4.07
2022-10-24T20:48:57.439Z,4.32
2022-10-24T20:51:24.340Z,3.58
2022-10-24T20:53:51.971Z,4.07
2022-10-24T20:56:25.903Z,4.25
2022-10-24T20:58:54.522Z,3.13
2022-10-24T21:01:24.412Z,3.08
2022-10-24T21:03:54.710Z,3.20
2022-10-24T21:06:24.168Z,2.92
2022-10-24T21:08:52.449Z,3.17
2022-10-24T21:11:26.163Z,3.13
2022-10-24T21:13:54.874Z,2.80
2022-10-24T21:16:22.173Z,2.58
2022-10-24T21:18:48.963Z,2.88
2022-10-24T21:23:43.585Z,2.30
2022-10-24T21:26:12.474Z,2.80
2022-10-24T21:28:40.735Z,2.92
2022-10-24T21:31:14.404Z,2.55
2022-10-24T21:33:41.821Z,2.15
2022-10-24T21:36:24.446Z,2.28
2022-10-24T21:38:57.961Z,2.15
2022-10-24T21:41:26.859Z,1.83
2022-10-24T21:43:54.759Z,2.10
2022-10-24T21:46:23.762Z,1.60
2022-10-24T21:48:54.888Z,1.92
2022-10-24T21:51:28.513Z,1.77
2022-10-24T21:54:01.151Z,2.17
2022-10-24T21:56:30.639Z,1.60
2022-10-24T21:59:00.432Z,1.60
2022-10-24T22:01:30.247Z,1.95
2022-10-24T22:03:58.857Z,1.73
2022-10-24T22:06:27.538Z,2.05
2022-10-24T22:08:55.298Z,1.80
2022-10-24T22:11:24.622Z,1.33
2022-10-24T22:13:52.028Z,1.50
2022-10-24T22:16:21.461Z,1.70
2022-10-24T22:18:48.591Z,2.03
2022-10-24T22:21:43.539Z,1.27
2022-10-24T22:24:13.659Z,1.50
2022-10-24T22:26:41.064Z,1.67
2022-10-24T22:29:08.863Z,1.67
2022-10-24T22:31:36.298Z,1.30
2022-10-24T22:34:04.079Z,1.40
2022-10-24T22:36:30.942Z,2.03
2022-10-24T22:38:58.109Z,2.28
2022-10-24T22:41:25.946Z,1.85
2022-10-24T22:43:53.109Z,1.60
2022-10-24T22:46:46.067Z,2.50
2022-10-24T22:49:25.294Z,1.95
2022-10-24T22:51:52.678Z,2.53
2022-10-24T22:54:24.112Z,2.78
2022-10-24T22:56:52.013Z,2.42
2022-10-24T22:59:19.246Z,2.65
2022-10-24T23:02:16.828Z,1.90
2022-10-24T23:04:57.292Z,2.80
2022-10-24T23:07:31.026Z,2.05
2022-10-24T23:09:57.966Z,1.65
2022-10-24T23:14:53.665Z,2.00
2022-10-24T23:17:28.956Z,1.90
2022-10-24T23:19:57.525Z,1.75
2022-10-24T23:22:27.459Z,2.05
2022-10-24T23:24:57.361Z,1.70
2022-10-24T23:27:28.200Z,2.00
2022-10-24T23:29:55.680Z,1.85
2022-10-24T23:32:25.406Z,1.50
2022-10-24T23:34:53.446Z,1.58
2022-10-24T23:37:31.831Z,1.70
2022-10-24T23:40:14.452Z,1.65
2022-10-24T23:42:41.653Z,2.10
2022-10-24T23:45:17.017Z,2.35
2022-10-24T23:48:09.092Z,1.88
2022-10-24T23:50:47.797Z,1.65
2022-10-24T23:53:33.025Z,2.40
2022-10-24T23:58:31.996Z,1.80
